sensor_id;sensor_type;location;lat;lon;timestamp;P1;durP1;ratioP1;P2;durP2;ratioP2
7398;SDS011;3740;50.700;7.184;2023-04-26T00:01:06;5.43;;;3.70;;
7398;SDS011;3740;50.700;7.184;2023-04-26T00:03:32;5.60;;;3.50;;
7398;SDS011;3740;50.700;7.184;2023-04-26T00:05:58;5.13;;;3.57;;
7398;SDS011;3740;50.700;7.184;2023-04-26T00:08:30;4.70;;;3.53;;
7398;SDS011;3740;50.700;7.184;2023-04-26T00:10:56;5.93;;;3.60;;
7398;SDS011;3740;50.700;7.184;2023-04-26T00:13:21;5.23;;;3.70;;
7398;SDS011;3740;50.700;7.184;2023-04-26T00:15:47;7.63;;;3.63;;
7398;SDS011;3740;50.700;7.184;2023-04-26T00:18:12;7.27;;;3.57;;
7398;SDS011;3740;50.700;7.184;2023-04-26T00:20:38;7.23;;;3.33;;
7398;SDS011;3740;50.700;7.184;2023-04-26T00:23:03;5.13;;;3.20;;
7398;SDS011;3740;50.700;7.184;2023-04-26T00:25:29;4.73;;;3.03;;
7398;SDS011;3740;50.700;7.184;2023-04-26T00:27:54;5.40;;;3.30;;
7398;SDS011;3740;50.700;7.184;2023-04-26T00:30:20;3.57;;;3.10;;
7398;SDS011;3740;50.700;7.184;2023-04-26T00:32:46;6.90;;;3.50;;
7398;SDS011;3740;50.700;7.184;2023-04-26T00:35:12;6.13;;;3.23;;
7398;SDS011;3740;50.700;7.184;2023-04-26T00:37:37;6.10;;;3.17;;
7398;SDS011;3740;50.700;7.184;2023-04-26T00:40:03;4.67;;;3.20;;
7398;SDS011;3740;50.700;7.184;2023-04-26T00:42:30;4.67;;;3.07;;
7398;SDS011;3740;50.700;7.184;2023-04-26T00:44:56;5.53;;;3.40;;
7398;SDS011;3740;50.700;7.184;2023-04-26T00:47:21;6.47;;;3.30;;
7398;SDS011;3740;50.700;7.184;2023-04-26T00:49:50;6.67;;;3.43;;
7398;SDS011;3740;50.700;7.184;2023-04-26T00:52:17;5.27;;;3.10;;
7398;SDS011;3740;50.700;7.184;2023-04-26T00:54:42;5.70;;;3.27;;
7398;SDS011;3740;50.700;7.184;2023-04-26T00:57:08;5.23;;;3.17;;
7398;SDS011;3740;50.700;7.184;2023-04-26T00:59:36;7.83;;;3.40;;
7398;SDS011;3740;50.700;7.184;2023-04-26T01:02:02;3.70;;;2.97;;
7398;SDS011;3740;50.700;7.184;2023-04-26T01:04:28;6.93;;;3.30;;
7398;SDS011;3740;50.700;7.184;2023-04-26T01:06:54;5.97;;;3.40;;
7398;SDS011;3740;50.700;7.184;2023-04-26T01:09:20;5.07;;;3.03;;
7398;SDS011;3740;50.700;7.184;2023-04-26T01:11:46;4.83;;;3.10;;
7398;SDS011;3740;50.700;7.184;2023-04-26T01:14:12;5.03;;;3.20;;
7398;SDS011;3740;50.700;7.184;2023-04-26T01:16:40;4.83;;;3.17;;
7398;SDS011;3740;50.700;7.184;2023-04-26T01:19:09;5.07;;;3.20;;
7398;SDS011;3740;50.700;7.184;2023-04-26T01:21:37;4.80;;;3.17;;
7398;SDS011;3740;50.700;7.184;2023-04-26T01:24:03;5.27;;;3.27;;
7398;SDS011;3740;50.700;7.184;2023-04-26T01:26:30;7.43;;;3.30;;
7398;SDS011;3740;50.700;7.184;2023-04-26T01:28:56;5.77;;;3.23;;
7398;SDS011;3740;50.700;7.184;2023-04-26T01:31:22;5.07;;;2.97;;
7398;SDS011;3740;50.700;7.184;2023-04-26T01:33:48;4.23;;;3.50;;
7398;SDS011;3740;50.700;7.184;2023-04-26T01:36:13;4.83;;;3.63;;
7398;SDS011;3740;50.700;7.184;2023-04-26T01:38:39;4.27;;;3.30;;
7398;SDS011;3740;50.700;7.184;2023-04-26T01:41:04;5.07;;;3.40;;
7398;SDS011;3740;50.700;7.184;2023-04-26T01:43:30;4.60;;;3.60;;
7398;SDS011;3740;50.700;7.184;2023-04-26T01:45:55;6.47;;;3.73;;
7398;SDS011;3740;50.700;7.184;2023-04-26T01:48:21;4.97;;;3.47;;
7398;SDS011;3740;50.700;7.184;2023-04-26T01:50:46;6.00;;;3.50;;
7398;SDS011;3740;50.700;7.184;2023-04-26T01:53:12;5.70;;;3.50;;
7398;SDS011;3740;50.700;7.184;2023-04-26T01:55:38;6.77;;;3.80;;
7398;SDS011;3740;50.700;7.184;2023-04-26T01:58:03;5.80;;;3.57;;
7398;SDS011;3740;50.700;7.184;2023-04-26T02:00:29;5.77;;;4.00;;
7398;SDS011;3740;50.700;7.184;2023-04-26T02:02:55;5.60;;;3.70;;
7398;SDS011;3740;50.700;7.184;2023-04-26T02:05:21;5.37;;;3.90;;
7398;SDS011;3740;50.700;7.184;2023-04-26T02:07:47;8.53;;;4.60;;
7398;SDS011;3740;50.700;7.184;2023-04-26T02:10:12;5.60;;;4.00;;
7398;SDS011;3740;50.700;7.184;2023-04-26T02:12:38;5.77;;;4.13;;
7398;SDS011;3740;50.700;7.184;2023-04-26T02:15:04;5.70;;;3.90;;
7398;SDS011;3740;50.700;7.184;2023-04-26T02:17:31;9.70;;;5.20;;
7398;SDS011;3740;50.700;7.184;2023-04-26T02:19:56;6.53;;;4.53;;
7398;SDS011;3740;50.700;7.184;2023-04-26T02:22:22;7.33;;;5.10;;
7398;SDS011;3740;50.700;7.184;2023-04-26T02:24:49;6.23;;;4.63;;
7398;SDS011;3740;50.700;7.184;2023-04-26T02:27:16;6.43;;;4.87;;
7398;SDS011;3740;50.700;7.184;2023-04-26T02:29:41;7.33;;;5.43;;
7398;SDS011;3740;50.700;7.184;2023-04-26T02:32:07;7.17;;;5.13;;
7398;SDS011;3740;50.700;7.184;2023-04-26T02:34:33;6.80;;;5.00;;
7398;SDS011;3740;50.700;7.184;2023-04-26T02:36:58;8.67;;;5.40;;
7398;SDS011;3740;50.700;7.184;2023-04-26T02:39:24;8.20;;;5.20;;
7398;SDS011;3740;50.700;7.184;2023-04-26T02:41:50;8.40;;;5.40;;
7398;SDS011;3740;50.700;7.184;2023-04-26T02:44:15;7.23;;;4.97;;
7398;SDS011;3740;50.700;7.184;2023-04-26T02:46:41;9.43;;;5.40;;
7398;SDS011;3740;50.700;7.184;2023-04-26T02:49:06;7.03;;;4.70;;
7398;SDS011;3740;50.700;7.184;2023-04-26T02:51:32;8.67;;;5.33;;
7398;SDS011;3740;50.700;7.184;2023-04-26T02:53:58;5.90;;;4.90;;
7398;SDS011;3740;50.700;7.184;2023-04-26T02:56:23;8.30;;;5.50;;
7398;SDS011;3740;50.700;7.184;2023-04-26T02:58:49;7.80;;;5.10;;
7398;SDS011;3740;50.700;7.184;2023-04-26T03:01:15;5.60;;;4.70;;
7398;SDS011;3740;50.700;7.184;2023-04-26T03:03:41;6.83;;;4.83;;
7398;SDS011;3740;50.700;7.184;2023-04-26T03:06:07;6.60;;;4.53;;
7398;SDS011;3740;50.700;7.184;2023-04-26T03:08:33;7.57;;;4.93;;
7398;SDS011;3740;50.700;7.184;2023-04-26T03:11:00;7.20;;;5.47;;
7398;SDS011;3740;50.700;7.184;2023-04-26T03:13:26;7.90;;;5.43;;
7398;SDS011;3740;50.700;7.184;2023-04-26T03:15:51;7.60;;;4.93;;
7398;SDS011;3740;50.700;7.184;2023-04-26T03:18:17;8.80;;;5.40;;
7398;SDS011;3740;50.700;7.184;2023-04-26T03:20:44;7.37;;;5.20;;
7398;SDS011;3740;50.700;7.184;2023-04-26T03:23:10;6.57;;;4.40;;
7398;SDS011;3740;50.700;7.184;2023-04-26T03:25:35;8.60;;;4.83;;
7398;SDS011;3740;50.700;7.184;2023-04-26T03:28:01;6.40;;;4.70;;
7398;SDS011;3740;50.700;7.184;2023-04-26T03:30:27;5.70;;;4.37;;
7398;SDS011;3740;50.700;7.184;2023-04-26T03:32:53;7.47;;;4.60;;
7398;SDS011;3740;50.700;7.184;2023-04-26T03:35:19;7.40;;;4.70;;
7398;SDS011;3740;50.700;7.184;2023-04-26T03:37:45;6.50;;;5.00;;
7398;SDS011;3740;50.700;7.184;2023-04-26T03:40:11;5.97;;;4.33;;
7398;SDS011;3740;50.700;7.184;2023-04-26T03:42:36;6.17;;;4.57;;
7398;SDS011;3740;50.700;7.184;2023-04-26T03:45:02;6.77;;;4.60;;
7398;SDS011;3740;50.700;7.184;2023-04-26T03:47:29;6.17;;;4.70;;
7398;SDS011;3740;50.700;7.184;2023-04-26T03:49:55;6.13;;;4.80;;
7398;SDS011;3740;50.700;7.184;2023-04-26T03:52:21;6.50;;;4.90;;
7398;SDS011;3740;50.700;7.184;2023-04-26T03:54:46;7.37;;;5.30;;
7398;SDS011;3740;50.700;7.184;2023-04-26T03:57:12;6.10;;;4.70;;
7398;SDS011;3740;50.700;7.184;2023-04-26T03:59:37;7.67;;;5.63;;
7398;SDS011;3740;50.700;7.184;2023-04-26T04:02:03;6.50;;;5.40;;
7398;SDS011;3740;50.700;7.184;2023-04-26T04:04:28;6.93;;;5.37;;
7398;SDS011;3740;50.700;7.184;2023-04-26T04:06:54;5.80;;;5.17;;
7398;SDS011;3740;50.700;7.184;2023-04-26T04:09:20;7.10;;;5.17;;
7398;SDS011;3740;50.700;7.184;2023-04-26T04:11:45;6.17;;;4.87;;
7398;SDS011;3740;50.700;7.184;2023-04-26T04:14:11;6.00;;;4.83;;
7398;SDS011;3740;50.700;7.184;2023-04-26T04:16:36;7.27;;;5.30;;
7398;SDS011;3740;50.700;7.184;2023-04-26T04:19:02;7.27;;;5.23;;
7398;SDS011;3740;50.700;7.184;2023-04-26T04:21:28;7.30;;;5.17;;
7398;SDS011;3740;50.700;7.184;2023-04-26T04:23:53;8.20;;;5.47;;
7398;SDS011;3740;50.700;7.184;2023-04-26T04:26:19;9.57;;;5.27;;
7398;SDS011;3740;50.700;7.184;2023-04-26T04:28:45;7.73;;;5.67;;
7398;SDS011;3740;50.700;7.184;2023-04-26T04:31:11;8.37;;;4.93;;
7398;SDS011;3740;50.700;7.184;2023-04-26T04:33:37;7.30;;;5.87;;
7398;SDS011;3740;50.700;7.184;2023-04-26T04:36:03;8.93;;;5.50;;
7398;SDS011;3740;50.700;7.184;2023-04-26T04:38:29;6.50;;;5.43;;
7398;SDS011;3740;50.700;7.184;2023-04-26T04:40:55;7.57;;;6.00;;
7398;SDS011;3740;50.700;7.184;2023-04-26T04:43:21;8.17;;;5.83;;
7398;SDS011;3740;50.700;7.184;2023-04-26T04:45:47;7.63;;;5.50;;
7398;SDS011;3740;50.700;7.184;2023-04-26T04:48:16;8.33;;;5.60;;
7398;SDS011;3740;50.700;7.184;2023-04-26T04:50:42;7.33;;;5.70;;
7398;SDS011;3740;50.700;7.184;2023-04-26T04:53:08;6.90;;;5.50;;
7398;SDS011;3740;50.700;7.184;2023-04-26T04:55:34;6.03;;;5.30;;
7398;SDS011;3740;50.700;7.184;2023-04-26T04:58:00;7.87;;;5.70;;
7398;SDS011;3740;50.700;7.184;2023-04-26T05:00:27;7.57;;;5.90;;
7398;SDS011;3740;50.700;7.184;2023-04-26T05:02:53;7.40;;;5.60;;
7398;SDS011;3740;50.700;7.184;2023-04-26T05:05:19;8.90;;;5.80;;
7398;SDS011;3740;50.700;7.184;2023-04-26T05:07:45;7.40;;;5.80;;
7398;SDS011;3740;50.700;7.184;2023-04-26T05:10:10;8.10;;;6.03;;
7398;SDS011;3740;50.700;7.184;2023-04-26T05:12:36;8.07;;;6.50;;
7398;SDS011;3740;50.700;7.184;2023-04-26T05:15:02;10.50;;;6.60;;
7398;SDS011;3740;50.700;7.184;2023-04-26T05:17:28;7.80;;;6.37;;
7398;SDS011;3740;50.700;7.184;2023-04-26T05:19:56;9.30;;;6.43;;
7398;SDS011;3740;50.700;7.184;2023-04-26T05:22:22;8.13;;;6.93;;
7398;SDS011;3740;50.700;7.184;2023-04-26T05:24:47;9.73;;;6.47;;
7398;SDS011;3740;50.700;7.184;2023-04-26T05:27:13;8.73;;;6.10;;
7398;SDS011;3740;50.700;7.184;2023-04-26T05:29:39;9.60;;;6.60;;
7398;SDS011;3740;50.700;7.184;2023-04-26T05:32:05;9.03;;;6.90;;
7398;SDS011;3740;50.700;7.184;2023-04-26T05:34:31;7.73;;;6.30;;
7398;SDS011;3740;50.700;7.184;2023-04-26T05:36:56;8.43;;;6.47;;
7398;SDS011;3740;50.700;7.184;2023-04-26T05:39:22;11.20;;;7.10;;
7398;SDS011;3740;50.700;7.184;2023-04-26T05:41:48;9.63;;;7.60;;
7398;SDS011;3740;50.700;7.184;2023-04-26T05:44:13;8.30;;;7.50;;
7398;SDS011;3740;50.700;7.184;2023-04-26T05:46:39;10.50;;;8.37;;
7398;SDS011;3740;50.700;7.184;2023-04-26T05:49:05;12.37;;;9.13;;
7398;SDS011;3740;50.700;7.184;2023-04-26T05:51:31;13.03;;;9.23;;
7398;SDS011;3740;50.700;7.184;2023-04-26T05:53:56;11.70;;;8.13;;
7398;SDS011;3740;50.700;7.184;2023-04-26T05:56:22;11.10;;;7.77;;
7398;SDS011;3740;50.700;7.184;2023-04-26T05:58:48;10.57;;;7.40;;
7398;SDS011;3740;50.700;7.184;2023-04-26T06:01:14;10.47;;;7.60;;
7398;SDS011;3740;50.700;7.184;2023-04-26T06:03:40;10.43;;;8.27;;
7398;SDS011;3740;50.700;7.184;2023-04-26T06:06:05;10.00;;;8.57;;
7398;SDS011;3740;50.700;7.184;2023-04-26T06:08:32;10.67;;;8.63;;
7398;SDS011;3740;50.700;7.184;2023-04-26T06:10:57;12.43;;;9.13;;
7398;SDS011;3740;50.700;7.184;2023-04-26T06:13:23;11.43;;;8.33;;
7398;SDS011;3740;50.700;7.184;2023-04-26T06:15:49;11.00;;;8.27;;
7398;SDS011;3740;50.700;7.184;2023-04-26T06:18:14;13.10;;;8.50;;
7398;SDS011;3740;50.700;7.184;2023-04-26T06:20:40;10.70;;;8.40;;
7398;SDS011;3740;50.700;7.184;2023-04-26T06:23:06;12.30;;;8.70;;
7398;SDS011;3740;50.700;7.184;2023-04-26T06:25:31;12.80;;;9.47;;
7398;SDS011;3740;50.700;7.184;2023-04-26T06:27:58;11.90;;;8.33;;
7398;SDS011;3740;50.700;7.184;2023-04-26T06:30:24;11.10;;;8.33;;
7398;SDS011;3740;50.700;7.184;2023-04-26T06:32:50;11.17;;;8.47;;
7398;SDS011;3740;50.700;7.184;2023-04-26T06:35:15;10.67;;;8.90;;
7398;SDS011;3740;50.700;7.184;2023-04-26T06:37:41;10.93;;;8.17;;
7398;SDS011;3740;50.700;7.184;2023-04-26T06:40:07;11.33;;;8.57;;
7398;SDS011;3740;50.700;7.184;2023-04-26T06:42:33;12.43;;;8.67;;
7398;SDS011;3740;50.700;7.184;2023-04-26T06:44:58;15.93;;;8.67;;
7398;SDS011;3740;50.700;7.184;2023-04-26T06:47:24;9.77;;;8.23;;
7398;SDS011;3740;50.700;7.184;2023-04-26T06:49:49;12.47;;;8.67;;
7398;SDS011;3740;50.700;7.184;2023-04-26T06:52:15;13.57;;;9.03;;
7398;SDS011;3740;50.700;7.184;2023-04-26T06:54:41;13.83;;;9.83;;
7398;SDS011;3740;50.700;7.184;2023-04-26T06:57:07;10.73;;;9.20;;
7398;SDS011;3740;50.700;7.184;2023-04-26T06:59:32;11.07;;;8.93;;
7398;SDS011;3740;50.700;7.184;2023-04-26T07:01:59;13.60;;;9.13;;
7398;SDS011;3740;50.700;7.184;2023-04-26T07:04:26;11.43;;;9.73;;
7398;SDS011;3740;50.700;7.184;2023-04-26T07:06:51;10.93;;;9.03;;
7398;SDS011;3740;50.700;7.184;2023-04-26T07:09:17;10.87;;;8.90;;
7398;SDS011;3740;50.700;7.184;2023-04-26T07:11:44;12.47;;;9.50;;
7398;SDS011;3740;50.700;7.184;2023-04-26T07:14:11;11.93;;;9.80;;
7398;SDS011;3740;50.700;7.184;2023-04-26T07:16:36;12.30;;;9.67;;
7398;SDS011;3740;50.700;7.184;2023-04-26T07:19:02;14.97;;;10.50;;
7398;SDS011;3740;50.700;7.184;2023-04-26T07:21:27;12.37;;;9.90;;
7398;SDS011;3740;50.700;7.184;2023-04-26T07:23:53;11.80;;;9.97;;
7398;SDS011;3740;50.700;7.184;2023-04-26T07:26:20;12.20;;;9.30;;
7398;SDS011;3740;50.700;7.184;2023-04-26T07:28:47;13.27;;;9.87;;
7398;SDS011;3740;50.700;7.184;2023-04-26T07:31:12;17.90;;;13.00;;
7398;SDS011;3740;50.700;7.184;2023-04-26T07:33:38;14.30;;;11.17;;
7398;SDS011;3740;50.700;7.184;2023-04-26T07:36:03;15.70;;;11.20;;
7398;SDS011;3740;50.700;7.184;2023-04-26T07:38:29;11.00;;;9.80;;
7398;SDS011;3740;50.700;7.184;2023-04-26T07:40:55;13.20;;;9.53;;
7398;SDS011;3740;50.700;7.184;2023-04-26T07:43:21;13.00;;;9.87;;
7398;SDS011;3740;50.700;7.184;2023-04-26T07:45:47;13.90;;;9.93;;
7398;SDS011;3740;50.700;7.184;2023-04-26T07:48:12;14.13;;;10.07;;
7398;SDS011;3740;50.700;7.184;2023-04-26T07:50:38;11.83;;;10.30;;
7398;SDS011;3740;50.700;7.184;2023-04-26T07:53:04;15.23;;;10.40;;
7398;SDS011;3740;50.700;7.184;2023-04-26T07:55:29;14.67;;;10.87;;
7398;SDS011;3740;50.700;7.184;2023-04-26T07:57:55;11.53;;;9.30;;
7398;SDS011;3740;50.700;7.184;2023-04-26T08:00:21;16.30;;;9.97;;
7398;SDS011;3740;50.700;7.184;2023-04-26T08:02:47;12.33;;;9.37;;
7398;SDS011;3740;50.700;7.184;2023-04-26T08:05:13;10.60;;;8.97;;
7398;SDS011;3740;50.700;7.184;2023-04-26T08:07:39;13.47;;;9.27;;
7398;SDS011;3740;50.700;7.184;2023-04-26T08:10:07;11.43;;;8.73;;
7398;SDS011;3740;50.700;7.184;2023-04-26T08:12:34;12.73;;;9.23;;
7398;SDS011;3740;50.700;7.184;2023-04-26T08:15:01;10.30;;;9.17;;
7398;SDS011;3740;50.700;7.184;2023-04-26T08:17:28;10.27;;;8.50;;
7398;SDS011;3740;50.700;7.184;2023-04-26T08:19:55;11.23;;;8.80;;
7398;SDS011;3740;50.700;7.184;2023-04-26T08:22:21;12.67;;;8.73;;
7398;SDS011;3740;50.700;7.184;2023-04-26T08:24:50;11.23;;;8.90;;
7398;SDS011;3740;50.700;7.184;2023-04-26T08:27:16;11.80;;;9.60;;
7398;SDS011;3740;50.700;7.184;2023-04-26T08:29:43;12.37;;;9.33;;
7398;SDS011;3740;50.700;7.184;2023-04-26T08:32:08;10.30;;;8.73;;
7398;SDS011;3740;50.700;7.184;2023-04-26T08:34:34;9.73;;;8.37;;
7398;SDS011;3740;50.700;7.184;2023-04-26T08:36:59;11.77;;;9.27;;
7398;SDS011;3740;50.700;7.184;2023-04-26T08:39:25;13.03;;;9.30;;
7398;SDS011;3740;50.700;7.184;2023-04-26T08:41:54;13.13;;;9.33;;
7398;SDS011;3740;50.700;7.184;2023-04-26T08:44:23;12.73;;;8.83;;
7398;SDS011;3740;50.700;7.184;2023-04-26T08:46:52;10.23;;;8.20;;
7398;SDS011;3740;50.700;7.184;2023-04-26T08:49:38;10.97;;;8.20;;
7398;SDS011;3740;50.700;7.184;2023-04-26T08:52:12;11.50;;;9.07;;
7398;SDS011;3740;50.700;7.184;2023-04-26T08:54:41;9.83;;;8.73;;
7398;SDS011;3740;50.700;7.184;2023-04-26T08:57:08;9.10;;;8.10;;
7398;SDS011;3740;50.700;7.184;2023-04-26T08:59:37;11.17;;;8.47;;
7398;SDS011;3740;50.700;7.184;2023-04-26T09:02:04;9.00;;;7.60;;
7398;SDS011;3740;50.700;7.184;2023-04-26T09:04:31;11.13;;;8.47;;
7398;SDS011;3740;50.700;7.184;2023-04-26T09:07:00;10.40;;;7.73;;
7398;SDS011;3740;50.700;7.184;2023-04-26T09:09:27;11.07;;;7.50;;
7398;SDS011;3740;50.700;7.184;2023-04-26T09:11:58;11.50;;;7.23;;
7398;SDS011;3740;50.700;7.184;2023-04-26T09:14:25;6.97;;;6.27;;
7398;SDS011;3740;50.700;7.184;2023-04-26T09:16:52;8.60;;;6.23;;
7398;SDS011;3740;50.700;7.184;2023-04-26T09:19:34;6.93;;;5.60;;
7398;SDS011;3740;50.700;7.184;2023-04-26T09:22:08;6.43;;;5.13;;
7398;SDS011;3740;50.700;7.184;2023-04-26T09:24:49;7.50;;;5.10;;
7398;SDS011;3740;50.700;7.184;2023-04-26T09:27:16;7.20;;;5.00;;
7398;SDS011;3740;50.700;7.184;2023-04-26T09:29:58;5.20;;;3.60;;
7398;SDS011;3740;50.700;7.184;2023-04-26T09:32:36;4.60;;;3.83;;
7398;SDS011;3740;50.700;7.184;2023-04-26T09:35:15;4.27;;;3.27;;
7398;SDS011;3740;50.700;7.184;2023-04-26T09:40:22;4.87;;;3.83;;
7398;SDS011;3740;50.700;7.184;2023-04-26T09:43:00;8.13;;;4.07;;
7398;SDS011;3740;50.700;7.184;2023-04-26T09:45:27;6.60;;;4.57;;
7398;SDS011;3740;50.700;7.184;2023-04-26T09:47:53;7.07;;;4.33;;
7398;SDS011;3740;50.700;7.184;2023-04-26T09:50:29;6.90;;;4.17;;
7398;SDS011;3740;50.700;7.184;2023-04-26T09:52:55;4.73;;;3.50;;
7398;SDS011;3740;50.700;7.184;2023-04-26T09:55:24;4.30;;;3.37;;
7398;SDS011;3740;50.700;7.184;2023-04-26T09:57:56;4.87;;;3.10;;
7398;SDS011;3740;50.700;7.184;2023-04-26T10:00:24;4.10;;;3.10;;
7398;SDS011;3740;50.700;7.184;2023-04-26T10:02:54;5.87;;;4.00;;
7398;SDS011;3740;50.700;7.184;2023-04-26T10:05:21;6.23;;;4.37;;
7398;SDS011;3740;50.700;7.184;2023-04-26T10:07:47;5.80;;;3.97;;
7398;SDS011;3740;50.700;7.184;2023-04-26T10:10:14;7.07;;;4.00;;
7398;SDS011;3740;50.700;7.184;2023-04-26T10:12:40;8.47;;;4.30;;
7398;SDS011;3740;50.700;7.184;2023-04-26T10:15:07;9.57;;;4.60;;
7398;SDS011;3740;50.700;7.184;2023-04-26T10:17:33;8.13;;;4.27;;
7398;SDS011;3740;50.700;7.184;2023-04-26T10:19:59;7.47;;;4.57;;
7398;SDS011;3740;50.700;7.184;2023-04-26T10:22:30;5.30;;;4.20;;
7398;SDS011;3740;50.700;7.184;2023-04-26T10:24:58;6.67;;;4.60;;
7398;SDS011;3740;50.700;7.184;2023-04-26T10:30:08;6.43;;;4.00;;
7398;SDS011;3740;50.700;7.184;2023-04-26T10:33:22;5.73;;;3.87;;
7398;SDS011;3740;50.700;7.184;2023-04-26T10:35:24;6.77;;;4.77;;
7398;SDS011;3740;50.700;7.184;2023-04-26T10:40:27;7.27;;;4.03;;
7398;SDS011;3740;50.700;7.184;2023-04-26T10:45:40;7.20;;;4.90;;
7398;SDS011;3740;50.700;7.184;2023-04-26T10:48:27;7.90;;;4.20;;
7398;SDS011;3740;50.700;7.184;2023-04-26T10:55:52;6.53;;;4.65;;
7398;SDS011;3740;50.700;7.184;2023-04-26T10:58:31;6.85;;;3.50;;
7398;SDS011;3740;50.700;7.184;2023-04-26T11:03:43;5.22;;;3.05;;
7398;SDS011;3740;50.700;7.184;2023-04-26T11:07:01;4.82;;;3.00;;
7398;SDS011;3740;50.700;7.184;2023-04-26T11:09:40;5.10;;;3.20;;
7398;SDS011;3740;50.700;7.184;2023-04-26T11:12:13;4.43;;;3.10;;
7398;SDS011;3740;50.700;7.184;2023-04-26T11:14:43;4.25;;;3.17;;
7398;SDS011;3740;50.700;7.184;2023-04-26T11:17:12;5.53;;;3.80;;
7398;SDS011;3740;50.700;7.184;2023-04-26T11:19:39;5.88;;;3.28;;
7398;SDS011;3740;50.700;7.184;2023-04-26T11:22:05;3.85;;;2.70;;
7398;SDS011;3740;50.700;7.184;2023-04-26T11:24:32;3.63;;;2.90;;
7398;SDS011;3740;50.700;7.184;2023-04-26T11:27:09;5.40;;;2.92;;
7398;SDS011;3740;50.700;7.184;2023-04-26T11:29:36;4.85;;;3.05;;
7398;SDS011;3740;50.700;7.184;2023-04-26T11:32:02;5.83;;;2.60;;
7398;SDS011;3740;50.700;7.184;2023-04-26T11:34:34;3.55;;;2.90;;
7398;SDS011;3740;50.700;7.184;2023-04-26T11:37:02;4.35;;;2.95;;
7398;SDS011;3740;50.700;7.184;2023-04-26T11:39:35;5.63;;;3.05;;
7398;SDS011;3740;50.700;7.184;2023-04-26T11:42:08;3.00;;;2.53;;
7398;SDS011;3740;50.700;7.184;2023-04-26T11:44:35;3.63;;;2.95;;
7398;SDS011;3740;50.700;7.184;2023-04-26T11:47:02;5.40;;;2.80;;
7398;SDS011;3740;50.700;7.184;2023-04-26T11:49:29;4.22;;;2.67;;
7398;SDS011;3740;50.700;7.184;2023-04-26T11:51:56;3.85;;;2.58;;
7398;SDS011;3740;50.700;7.184;2023-04-26T11:54:35;3.75;;;2.58;;
7398;SDS011;3740;50.700;7.184;2023-04-26T11:57:14;4.70;;;3.00;;
7398;SDS011;3740;50.700;7.184;2023-04-26T11:59:41;3.33;;;2.50;;
7398;SDS011;3740;50.700;7.184;2023-04-26T12:02:07;4.97;;;2.60;;
7398;SDS011;3740;50.700;7.184;2023-04-26T12:04:34;4.50;;;3.15;;
7398;SDS011;3740;50.700;7.184;2023-04-26T12:07:02;4.55;;;2.80;;
7398;SDS011;3740;50.700;7.184;2023-04-26T12:09:28;13.43;;;10.75;;
7398;SDS011;3740;50.700;7.184;2023-04-26T12:12:02;3.53;;;3.10;;
7398;SDS011;3740;50.700;7.184;2023-04-26T12:14:37;6.55;;;4.75;;
7398;SDS011;3740;50.700;7.184;2023-04-26T12:17:04;7.32;;;5.25;;
7398;SDS011;3740;50.700;7.184;2023-04-26T12:19:33;3.58;;;2.92;;
7398;SDS011;3740;50.700;7.184;2023-04-26T12:22:04;10.20;;;7.72;;
7398;SDS011;3740;50.700;7.184;2023-04-26T12:24:31;13.80;;;12.15;;
7398;SDS011;3740;50.700;7.184;2023-04-26T12:26:58;7.15;;;6.13;;
7398;SDS011;3740;50.700;7.184;2023-04-26T12:29:25;4.30;;;3.00;;
7398;SDS011;3740;50.700;7.184;2023-04-26T12:31:51;7.93;;;5.78;;
7398;SDS011;3740;50.700;7.184;2023-04-26T12:34:17;4.00;;;3.03;;
7398;SDS011;3740;50.700;7.184;2023-04-26T12:36:42;9.25;;;5.93;;
7398;SDS011;3740;50.700;7.184;2023-04-26T12:39:09;3.58;;;2.55;;
7398;SDS011;3740;50.700;7.184;2023-04-26T12:41:37;7.60;;;5.95;;
7398;SDS011;3740;50.700;7.184;2023-04-26T12:44:03;5.22;;;3.63;;
7398;SDS011;3740;50.700;7.184;2023-04-26T12:46:29;17.70;;;15.90;;
7398;SDS011;3740;50.700;7.184;2023-04-26T12:48:55;4.60;;;4.03;;
7398;SDS011;3740;50.700;7.184;2023-04-26T12:51:20;5.90;;;2.97;;
7398;SDS011;3740;50.700;7.184;2023-04-26T12:53:46;4.63;;;3.22;;
7398;SDS011;3740;50.700;7.184;2023-04-26T12:56:11;6.57;;;3.40;;
7398;SDS011;3740;50.700;7.184;2023-04-26T12:58:37;5.97;;;3.47;;
7398;SDS011;3740;50.700;7.184;2023-04-26T13:01:02;5.50;;;3.10;;
7398;SDS011;3740;50.700;7.184;2023-04-26T13:03:28;4.80;;;3.25;;
7398;SDS011;3740;50.700;7.184;2023-04-26T13:05:53;4.65;;;2.67;;
7398;SDS011;3740;50.700;7.184;2023-04-26T13:08:19;3.83;;;2.95;;
7398;SDS011;3740;50.700;7.184;2023-04-26T13:10:45;3.92;;;2.92;;
7398;SDS011;3740;50.700;7.184;2023-04-26T13:13:10;3.63;;;2.60;;
7398;SDS011;3740;50.700;7.184;2023-04-26T13:15:36;5.03;;;3.22;;
7398;SDS011;3740;50.700;7.184;2023-04-26T13:18:02;3.92;;;2.80;;
7398;SDS011;3740;50.700;7.184;2023-04-26T13:20:27;7.53;;;3.65;;
7398;SDS011;3740;50.700;7.184;2023-04-26T13:22:53;3.20;;;2.83;;
7398;SDS011;3740;50.700;7.184;2023-04-26T13:25:18;4.28;;;3.00;;
7398;SDS011;3740;50.700;7.184;2023-04-26T13:27:44;4.32;;;2.75;;
7398;SDS011;3740;50.700;7.184;2023-04-26T13:30:11;7.50;;;3.42;;
7398;SDS011;3740;50.700;7.184;2023-04-26T13:32:37;5.35;;;3.20;;
7398;SDS011;3740;50.700;7.184;2023-04-26T13:35:03;3.38;;;2.70;;
7398;SDS011;3740;50.700;7.184;2023-04-26T13:37:28;5.05;;;3.30;;
7398;SDS011;3740;50.700;7.184;2023-04-26T13:39:54;4.38;;;2.80;;
7398;SDS011;3740;50.700;7.184;2023-04-26T13:42:19;5.97;;;3.50;;
7398;SDS011;3740;50.700;7.184;2023-04-26T13:44:45;4.43;;;3.38;;
7398;SDS011;3740;50.700;7.184;2023-04-26T13:47:11;4.75;;;3.20;;
7398;SDS011;3740;50.700;7.184;2023-04-26T13:49:37;4.32;;;3.20;;
7398;SDS011;3740;50.700;7.184;2023-04-26T13:52:06;4.40;;;3.10;;
7398;SDS011;3740;50.700;7.184;2023-04-26T13:54:32;3.20;;;2.90;;
7398;SDS011;3740;50.700;7.184;2023-04-26T13:56:59;4.65;;;4.07;;
7398;SDS011;3740;50.700;7.184;2023-04-26T13:59:25;6.00;;;3.75;;
7398;SDS011;3740;50.700;7.184;2023-04-26T14:01:51;6.95;;;4.10;;
7398;SDS011;3740;50.700;7.184;2023-04-26T14:04:16;5.97;;;3.70;;
7398;SDS011;3740;50.700;7.184;2023-04-26T14:06:42;6.10;;;3.38;;
7398;SDS011;3740;50.700;7.184;2023-04-26T14:09:08;5.22;;;3.85;;
7398;SDS011;3740;50.700;7.184;2023-04-26T14:11:33;6.10;;;5.07;;
7398;SDS011;3740;50.700;7.184;2023-04-26T14:13:59;6.45;;;4.80;;
7398;SDS011;3740;50.700;7.184;2023-04-26T14:16:25;6.10;;;4.05;;
7398;SDS011;3740;50.700;7.184;2023-04-26T14:18:50;6.60;;;4.40;;
7398;SDS011;3740;50.700;7.184;2023-04-26T14:21:16;4.75;;;4.22;;
7398;SDS011;3740;50.700;7.184;2023-04-26T14:23:42;6.65;;;4.80;;
7398;SDS011;3740;50.700;7.184;2023-04-26T14:26:08;5.70;;;4.20;;
7398;SDS011;3740;50.700;7.184;2023-04-26T14:28:34;7.25;;;5.90;;
7398;SDS011;3740;50.700;7.184;2023-04-26T14:31:00;7.55;;;5.60;;
7398;SDS011;3740;50.700;7.184;2023-04-26T14:33:26;11.48;;;10.27;;
7398;SDS011;3740;50.700;7.184;2023-04-26T14:35:51;6.77;;;4.93;;
7398;SDS011;3740;50.700;7.184;2023-04-26T14:38:17;5.93;;;4.63;;
7398;SDS011;3740;50.700;7.184;2023-04-26T14:40:43;5.90;;;4.60;;
7398;SDS011;3740;50.700;7.184;2023-04-26T14:43:11;9.90;;;7.40;;
7398;SDS011;3740;50.700;7.184;2023-04-26T14:45:37;6.43;;;5.40;;
7398;SDS011;3740;50.700;7.184;2023-04-26T14:48:05;7.10;;;5.03;;
7398;SDS011;3740;50.700;7.184;2023-04-26T14:50:31;5.73;;;4.60;;
7398;SDS011;3740;50.700;7.184;2023-04-26T14:52:56;6.13;;;4.60;;
7398;SDS011;3740;50.700;7.184;2023-04-26T14:55:22;8.03;;;5.00;;
7398;SDS011;3740;50.700;7.184;2023-04-26T14:57:48;7.00;;;4.60;;
7398;SDS011;3740;50.700;7.184;2023-04-26T15:00:14;7.03;;;5.10;;
7398;SDS011;3740;50.700;7.184;2023-04-26T15:02:41;8.40;;;5.80;;
7398;SDS011;3740;50.700;7.184;2023-04-26T15:05:07;6.97;;;5.10;;
7398;SDS011;3740;50.700;7.184;2023-04-26T15:07:34;5.60;;;4.50;;
7398;SDS011;3740;50.700;7.184;2023-04-26T15:10:00;6.10;;;4.97;;
7398;SDS011;3740;50.700;7.184;2023-04-26T15:12:26;8.60;;;5.37;;
7398;SDS011;3740;50.700;7.184;2023-04-26T15:14:52;9.30;;;5.57;;
7398;SDS011;3740;50.700;7.184;2023-04-26T15:17:17;7.83;;;5.43;;
7398;SDS011;3740;50.700;7.184;2023-04-26T15:19:43;6.23;;;4.80;;
7398;SDS011;3740;50.700;7.184;2023-04-26T15:22:08;5.73;;;4.40;;
7398;SDS011;3740;50.700;7.184;2023-04-26T15:24:37;5.10;;;4.30;;
7398;SDS011;3740;50.700;7.184;2023-04-26T15:27:03;5.93;;;4.90;;
7398;SDS011;3740;50.700;7.184;2023-04-26T15:29:32;5.87;;;4.37;;